• Join FlightAware (Why Join?)
  • Login
  • US Flag GB Flag 
02:50 EST


 

Airport Tracker/Info


-or-


 

Live Flight TrackerFlight Track Log ✈ TMC875 ✈ 06-Jun-2013 ✈ KBED - KPBI

Flight Track Log - Related Links

Times and Time Zones

All times are in EDT time to prevent confusion due to time zone crossing. See the TMC875 flight status page for this flight to view local times or setup timezone preferences in your user account.

Time Position Orientation Groundspeed Altitude Reporting Facility
EDT Latitude Longitude Course Direction KTS MPH feet Rate Location/Type
11:17 42.4667 -71.3167 217° Southwest 197 227 1,300  Level KA90
11:19 42.3817 -71.4647 232° Southwest 248 285 6,000 2,460 Climbing Boston Center
11:20 42.3236 -71.5133 212° Southwest 269 310 9,400 3,840 Climbing Boston Center
11:21 42.2553 -71.5733 213° Southwest 269 310 13,700 3,240 Climbing Boston Center
11:22 42.1933 -71.6275 213° Southwest 274 315 15,900 1,920 Climbing Boston Center
11:23 42.0009 -71.7825 217° Southwest  Level FlightAware Approximate
11:23 42.1292 -71.6869 214° Southwest 295 339 17,600  Level Boston Center
11:24 42.0544 -71.7606 216° Southwest 321 369 19,400 1,980 Climbing Boston Center
11:25 41.9797 -71.8314 215° Southwest 328 377 21,600 2,100 Climbing Boston Center
11:26 41.9011 -71.9017 214° Southwest 336 387 23,600 2,100 Climbing Boston Center
11:27 41.8242 -71.9747 215° Southwest 341 392 25,800 2,040 Climbing Boston Center
11:28 41.7475 -72.0478 215° Southwest 341 392 27,700 2,100 Climbing Boston Center
11:29 41.6706 -72.1206 215° Southwest 341 392 30,000 1,800 Climbing Boston Center
11:30 41.5936 -72.1903 214° Southwest 341 392 31,400 1,260 Climbing Boston Center
11:31 41.5167 -72.2625 215° Southwest 341 392 32,600 1,020 Climbing Boston Center
11:32 41.4272 -72.3406 213° Southwest 346 398 33,500 960 Climbing Boston Center
11:33 41.3458 -72.4181 216° Southwest 359 413 34,600 1,080 Climbing Boston Center
11:34 41.2667 -72.4897 214° Southwest 374 430 35,700 1,020 Climbing Boston Center
11:35 41.1853 -72.5669 216° Southwest 379 436 36,700 1,020 Climbing Boston Center
11:36 41.1019 -72.6439 215° Southwest 379 436 37,800 960 Climbing Boston Center
11:37 41.0247 -72.7208 217° Southwest 369 425 38,700 780 Climbing Boston Center
11:38 40.9453 -72.8000 217° Southwest 364 419 39,400 600 Climbing Boston Center
11:39 40.8658 -72.8764 216° Southwest 364 419 40,000 300 Climbing Boston Center
11:40 40.7861 -72.9553 217° Southwest 364 419 40,000  Level Boston Center
11:41 40.6919 -73.0422 215° Southwest 364 419 40,000  Level Boston Center
11:42 40.6019 -73.1233 214° Southwest 381 438 40,000  Level Boston Center
11:43 40.5119 -73.2017 214° Southwest 386 444 40,000  Level Boston Center
11:44 40.4319 -73.2881 219° Southwest 386 444 40,000  Level Boston Center
11:47 40.2531 -73.4686 218° Southwest 387 445 40,000  Level Washington Center
11:48 40.1669 -73.5500 216° Southwest 387 445 40,000  Level Washington Center
11:49 40.0889 -73.6147 212° Southwest 382 440 40,000  Level Washington Center
11:50 40.0025 -73.6956 216° Southwest 382 440 40,000  Level Washington Center
11:51 39.9164 -73.7764 216° Southwest 382 440 40,000  Level Washington Center
11:52 39.8322 -73.8569 216° Southwest 382 440 40,000  Level Washington Center
11:53 39.7458 -73.9372 216° Southwest 382 440 40,000  Level Washington Center
11:54 39.6594 -74.0175 216° Southwest 382 440 40,000  Level Washington Center
11:55 39.5750 -74.0972 216° Southwest 382 440 40,000  Level Washington Center
11:56 39.4883 -74.1772 215° Southwest 382 440 40,000  Level Washington Center
11:57 39.4017 -74.2542 214° Southwest 382 440 40,000  Level Washington Center
11:58 39.3131 -74.3361 216° Southwest 382 440 40,000  Level Washington Center
11:59 39.2283 -74.4153 216° Southwest 382 440 40,000  Level Washington Center
12:00 39.1394 -74.4944 215° Southwest 382 440 40,000  Level Washington Center
12:01 39.0547 -74.5758 217° Southwest 382 440 40,000  Level Washington Center
12:02 38.9658 -74.6519 214° Southwest 382 440 40,000  Level Washington Center
12:03 38.8808 -74.7275 215° Southwest 382 440 40,000  Level Washington Center
12:04 38.7939 -74.8086 216° Southwest 382 440 40,000  Level Washington Center
12:05 38.7089 -74.8867 216° Southwest 382 440 40,000  Level Washington Center
12:06 38.6217 -74.9619 214° Southwest 382 440 40,000  Level Washington Center
12:07 38.5367 -75.0450 217° Southwest 382 440 40,000  Level Washington Center
12:08 38.4517 -75.1172 214° Southwest 382 440 40,000  Level Washington Center
12:09 38.3642 -75.1944 215° Southwest 382 440 40,000  Level Washington Center
12:10 38.2728 -75.2797 216° Southwest 375 432 40,000  Level Washington Center
12:11 38.1853 -75.3539 214° Southwest 380 437 40,000  Level Washington Center
12:12 38.1022 -75.4333 217° Southwest 380 437 40,000  Level Washington Center
12:13 38.0147 -75.5047 213° Southwest 380 437 40,000  Level Washington Center
12:14 37.9228 -75.5706 209° Southwest 380 437 40,000  Level Washington Center
12:15 37.8333 -75.6392 211° Southwest 380 437 40,000  Level Washington Center
12:16 37.7414 -75.7047 209° Southwest 380 437 40,000  Level Washington Center
12:17 37.6475 -75.7650 207° Southwest 380 437 40,000  Level Washington Center
12:18 37.5536 -75.8222 206° Southwest 380 437 40,000  Level Washington Center
12:19 37.4575 -75.8744 203° Southwest 380 437 40,000  Level Washington Center
12:20 37.3633 -75.9289 205° Southwest 380 437 40,000  Level Washington Center
12:21 37.2672 -75.9833 204° Southwest 380 437 40,000  Level Washington Center
12:22 37.1733 -76.0375 205° Southwest 380 437 40,000  Level Washington Center
12:23 37.0772 -76.0917 204° Southwest 378 435 40,000  Level Washington Center
12:24 36.9831 -76.1483 206° Southwest 378 435 40,000  Level Washington Center
12:25 36.8931 -76.1892 200° South 378 435 40,000  Level Washington Center
12:26 36.7989 -76.2431 205° Southwest 378 435 40,000 -60 Level Washington Center
12:27 36.6944 -76.3017 204° Southwest 378 435 39,900  Descending Washington Center
12:28 36.6022 -76.3553 205° Southwest 378 435 40,000  Climbing Washington Center
12:29 36.5164 -76.4008 203° Southwest 378 435 40,000  Level Washington Center
12:30 36.4219 -76.4542 204° Southwest 378 435 40,000  Level Washington Center
12:31 36.3258 -76.5047 203° Southwest 378 435 40,000  Level Washington Center
12:32 36.2314 -76.5575 204° Southwest 378 435 40,000  Level Washington Center
12:33 36.1372 -76.6106 204° Southwest 378 435 40,000  Level Washington Center
12:34 36.0406 -76.6606 203° Southwest 378 435 40,000  Level Washington Center
12:35 35.9464 -76.7133 204° Southwest 378 435 40,000  Level Washington Center
12:36 35.8519 -76.7631 203° Southwest 378 435 40,000  Level Washington Center
12:37 35.7556 -76.8181 205° Southwest 378 435 40,000  Level Washington Center
12:38 35.6589 -76.8678 203° Southwest 378 435 40,000  Level Washington Center
12:39 35.5581 -76.9275 206° Southwest 378 435 40,000  Level Washington Center
12:40 35.4594 -76.9792 203° Southwest 378 435 40,000  Level Washington Center
12:41 35.3608 -77.0311 203° Southwest 383 441 40,000  Level Washington Center
12:42 35.2642 -77.0828 204° Southwest 383 441 40,000  Level Washington Center
12:43 35.1675 -77.1344 204° Southwest 383 441 40,000  Level Washington Center
12:44 35.0708 -77.1858 204° Southwest 383 441 40,000  Level Washington Center
12:45 34.9764 -77.2372 204° Southwest 378 435 40,000  Level Washington Center
12:46 34.8775 -77.2883 203° Southwest 378 435 40,000  Level Washington Center
12:47 34.7869 -77.3394 205° Southwest 378 435 40,000  Level Washington Center
12:48 34.6903 -77.3881 202° Southwest 378 435 40,000  Level Washington Center
12:49 34.5914 -77.4439 205° Southwest 384 442 40,000  Level Washington Center
12:50 34.4908 -77.4794 196° South 384 442 40,000  Level Washington Center
12:51 34.3858 -77.5122 194° South 389 448 40,000  Level Washington Center
12:52 34.2831 -77.5450 195° South 389 448 40,000  Level Washington Center
12:54 34.0289 -77.6258 195° South 393 452 40,000  Level Jacksonville Center
12:55 33.9239 -77.6594 195° South 393 452 40,000  Level Jacksonville Center
12:56 33.8231 -77.6931 195° South 393 452 40,000  Level Jacksonville Center
12:57 33.7181 -77.7242 194° South 393 452 40,000  Level Jacksonville Center
12:58 33.6028 -77.7608 195° South 393 452 40,000  Level Jacksonville Center
12:59 33.4975 -77.7944 195° South 393 452 40,000  Level Jacksonville Center
13:00 33.3947 -77.8303 196° South 393 452 40,000  Level Jacksonville Center
13:01 33.2917 -77.8608 194° South 393 452 40,000  Level Jacksonville Center
13:02 33.1886 -77.8939 195° South 393 452 40,000  Level Jacksonville Center
13:03 33.0856 -77.9244 194° South 393 452 40,000  Level Jacksonville Center
13:04 32.9803 -77.9575 195° South 393 452 40,000  Level Jacksonville Center
13:05 32.8772 -77.9906 195° South 393 452 40,000  Level Jacksonville Center
13:06 32.7742 -78.0208 194° South 393 452 40,000  Level Jacksonville Center
13:07 32.6711 -78.0533 195° South 393 452 40,000  Level Jacksonville Center
13:08 32.5636 -78.0839 193° South 393 452 40,000  Level Jacksonville Center
13:09 32.4625 -78.1164 195° South 393 452 40,000  Level Jacksonville Center
13:10 32.3553 -78.1464 193° South 393 452 40,000  Level Jacksonville Center
13:11 32.2522 -78.1814 196° South 393 452 40,000  Level Jacksonville Center
13:12 32.1447 -78.2114 193° South 393 452 40,000  Level Jacksonville Center
13:13 32.0394 -78.2436 195° South 393 452 40,000  Level Jacksonville Center
13:14 31.9489 -78.2800 199° South 393 452 40,000  Level Jacksonville Center
13:15 31.8397 -78.3197 197° South 398 458 40,000  Level Jacksonville Center
13:16 31.7325 -78.3544 195° South 398 458 40,000  Level Jacksonville Center
13:17 31.6311 -78.3836 194° South 392 451 40,000  Level Jacksonville Center
13:18 31.5239 -78.4181 195° South 397 457 40,000  Level Jacksonville Center
13:19 31.4228 -78.4497 195° South 397 457 40,000 -60 Level Jacksonville Center
13:20 31.3133 -78.4842 195° South 392 451 39,900  Descending Jacksonville Center
13:21 31.2078 -78.5133 193° South 392 451 40,000  Climbing Jacksonville Center
13:22 31.1006 -78.5500 196° South 397 457 40,000 -60 Level Jacksonville Center
13:23 30.9808 -78.5869 195° South 396 456 39,900  Descending Jacksonville Center
13:24 30.8714 -78.6211 195° South 399 459 40,000  Climbing Jacksonville Center
13:25 30.7658 -78.6547 195° South 394 453 39,900  Descending Jacksonville Center
13:26 30.6586 -78.6886 195° South 401 461 40,000 60 Climbing Jacksonville Center
13:26 30.6228 -78.7014 197° South 403 464 40,000  Level Miami Center
13:27 30.5139 -78.7406 197° South 389 448 40,000  Level Miami Center
13:28 30.4028 -78.7794 197° South 404 465 40,000  Level Miami Center
13:29 30.2961 -78.8158 196° South 410 472 40,000  Level Miami Center
13:30 30.1850 -78.8572 198° South 410 472 40,000 -300 Level Miami Center
13:31 30.0739 -78.8958 197° South 405 466 39,500 -1,020 Descending Miami Center
13:32 29.9711 -78.9392 200° South 405 466 38,000 -1,680 Descending Miami Center
13:33 29.8622 -78.9756 196° South 405 466 36,200 -1,020 Descending Miami Center
13:34 29.7533 -79.0092 195° South 411 473 36,000 -120 Descending Miami Center
13:35 29.6342 -79.0308 189° South 418 481 36,000  Level Miami Center
13:36 29.5108 -79.0450 186° South 430 495 36,000  Level Miami Center
13:37 29.4019 -79.0689 191° South 424 488 36,000  Level Miami Center
13:38 29.3017 -79.0908 191° South 398 458 36,000  Level Miami Center
13:39 29.1908 -79.1050 186° South 393 452 36,000  Level Miami Center
13:40 29.0842 -79.1267 190° South 393 452 36,000  Level Miami Center
13:41 28.9731 -79.1481 190° South 393 452 36,000  Level Miami Center
13:42 28.8586 -79.1339 174° South 401 461 36,000  Level Miami Center
13:43 28.7447 -79.0867 160° South 407 468 36,000 -600 Level Miami Center
13:44 28.6367 -79.0419 160° South 412 474 34,900 -1,200 Descending Miami Center
13:45 28.5311 -78.9950 159° South 412 474 33,600 -1,260 Descending Miami Center
13:46 28.4286 -79.0119 188° South 382 440 32,400 -1,260 Descending Miami Center
13:47 28.3419 -79.0786 214° Southwest 362 417 31,100 -1,680 Descending Miami Center
13:48 28.2489 -79.1500 214° Southwest 388 447 29,100 -2,100 Descending Miami Center
13:49 28.1558 -79.2208 214° Southwest 398 458 27,000 -2,100 Descending Miami Center
13:50 28.0692 -79.2875 214° Southwest 398 458 24,900 -1,500 Descending Miami Center
13:51 27.9664 -79.3275 199° South 398 458 24,000 -480 Descending Miami Center
13:52 27.8656 -79.3606 196° South 385 443 24,000  Level Miami Center
13:53 27.7894 -79.4153 212° Southwest 365 420 24,000 -120 Level Miami Center
13:54 27.7006 -79.4767 211° Southwest 377 434 23,800 -1,380 Descending Miami Center
13:55 27.6117 -79.5425 213° Southwest 364 419 21,300 -2,400 Descending Miami Center
13:56 27.5356 -79.5947 211° Southwest 335 386 19,100 -2,160 Descending Miami Center
13:57 27.4614 -79.6492 213° Southwest 325 374 17,000 -2,100 Descending Miami Center
13:58 27.3917 -79.6964 211° Southwest 325 374 14,900 -2,040 Descending Miami Center
13:59 27.3217 -79.7486 214° Southwest 318 366 13,000 -1,920 Descending Miami Center
14:00 27.2539 -79.7958 212° Southwest 286 329 11,100 -1,800 Descending Miami Center
14:01 27.1967 -79.8342 211° Southwest 263 303 9,500 -1,500 Descending Miami Center
14:02 27.1394 -79.8747 212° Southwest 251 289 8,100 -1,500 Descending Miami Center
14:03 27.0844 -79.9058 207° Southwest 245 282 6,600 -1,560 Descending Miami Center
14:04 27.0275 -79.9394 208° Southwest 245 282 5,000 -1,320 Descending Miami Center
14:05 26.9683 -79.9728 207° Southwest 240 276 4,000 -540 Descending Miami Center
14:06 26.9153 -80.0133 214° Southwest 234 269 4,000  Level Miami Center
14:08 26.8247 -80.0753 222° Southwest  Level FlightAware Approximate
14:15 26.6832 -80.0956 110° East  Level Estimated
14:16 26.6832 -80.0956 110° East  Level Estimated
14:17 26.6832 -80.0956 110° East  Level Estimated
14:18 26.6832 -80.0956 110° East  Level Estimated
14:19 26.6832 -80.0956 110° East  Level Estimated
14:20 26.6832 -80.0956 110° East  Level Estimated
14:21 26.6832 -80.0956 110° East  Level Estimated